Coffeyville, KS

5:52 AM CDT on July 29, 2014 (GMT -0500)
Coffeyville Municipal (KCFV) Elev 751 ft | 37.09 °N, 95.57 °W | Change Station

Current weather conditions updated 1 hour ago

Partly Cloudy
Partly Cloudy
63 °F
Feels Like 63 °F
N
5
Wind Variable Wind from NNW

Today is forecast to be nearly the same temperature as yesterday. Late night thunderstorms tonight.

Today
High -- | Low -- °F
--% Chance of Precip.
Yesterday
High -- | Low -- °F
Precip. -- in
6:25 AM 8:32 PM
Waxing Crescent, 6% visible
Pressure 30.14 in
Visibility 10.0 miles
Clouds Few 10000 ft
Dew Point 60 °F
Humidity 90%
Rainfall 0.00 in
Snow Depth Not available.
UV 0 out of 12
Pollen 5.40 out of 12
Air Quality Not available.
Flu Activity Not available.
METAR KCFV 290952Z AUTO 34004KT 10SM FEW100 17/16 A3016 RMK AO2 SLP206 T01720156

More Conditions Fewer Conditions

Pressure 30.14 in
Visibility 10.0 miles
Clouds Few 10000 ft
Dew Point 60 °F
Humidity 90%
Rainfall 0.00 in
Snow Depth Not available.
UV 0 out of 12
Pollen 5.40 out of 12
Air Quality Not available.
Flu Activity Not available.
METAR KCFV 290952Z AUTO 34004KT 10SM FEW100 17/16 A3016 RMK AO2 SLP206 T01720156

More Conditions Fewer Conditions

10-Day Weather Forecast

Almanac

Astronomy

Jul. 29, 2014 Rise Set
Actual Time 6:25 AM CDT 8:32 PM CDT
Civil Twilight 5:56 AM CDT 9:01 PM CDT
Nautical Twilight 5:20 AM CDT 9:36 PM CDT
Astronomical Twilight 4:42 AM CDT 10:14 PM CDT
Moon 8:57 AM CDT 9:50 PM CDT
Length of Visible Light 15h 04m
Length of Day
14h 07m
Tomorrow will be 1m 42s shorter.
Waxing Crescent, 6% of the Moon is Illuminated
Today
Waxing Crescent
Aug 3
First Quarter
Aug 10
Full
Aug 17
Last Quarter
Aug 25
New

Today's Extremes

State Highs State Lows

Community

WunderPhotos

Upload Photos

1,738,683 photos uploaded!

Nearby

Snow Depth

Station Depth Elevation
No new snow has been reported.

Earthquake Activity

City Distance Mag. Time & Date
Guthrie, Oklahoma 135 miles 2.7 5:27 AM CDT
2014-07-24
Langston, Oklahoma 122 miles 3.2 9:03 AM CDT
2014-07-23
Langston, Oklahoma 121 miles 3.3 9:02 PM CDT
2014-07-22
Guthrie, Oklahoma 130 miles 2.5 7:25 PM CDT
2014-07-22
Minimum magnitude displayed is 2.5.

Coastal Water Temperatures

Place Temperature
No Stations Reporting

Nearby Weather Stations

Station Location Temp. Dew Point Humidity Wind Precip. Elev Updated Type
MesoWest LENAPA , Lenapah, OK 69 °F - - North  at  - 0.00 in / hr 720 ft 4:15 AM CDT MADIS
HADS BIG HILL CREEK LAKE NEAR CHERRYV KS, Mound Valley, KS 69 °F 58 °F 68% NE  at  5 mph 0.00 in / hr 850 ft 4:00 AM CDT MADIS
HADS ELK RIVER AT ELK CITY LAKE NEAR KS, Sycamore, KS 67 °F 59 °F 75% NE  at  1 mph 0.00 in / hr 794 ft 5:00 AM CDT MADIS
HADS LITTLE CANEY RIVER AT COPAN LAKE OK, Copan, OK 67 °F 58 °F 74% NE  at  1 mph 0.00 in / hr 708 ft 5:00 AM CDT MADIS
MesoWest SYCAMR , Sycamore, KS 58 °F - - North  at  - 0.00 in / hr 816 ft 3:40 AM CDT MADIS

Show More Stations Show Fewer Stations